Time;durP1;ratioP1;P1;durP2;ratioP2;P2;SDS_P1;SDS_P2;PMS_P1;PMS_P2;Temp;Humidity;BMP_temperature;BMP_pressure;BME280_temperature;BME280_humidity;BME280_pressure;Samples;Min_cycle;Max_cycle;Signal;HPM_P1;HPM_P2
2023/09/03 00:00:40;;;;;;;2.00;2.00;;;;;;;18.98;94.92;97467.16;5024016;28;20501;-63
2023/09/03 00:03:07;;;;;;;1.92;1.92;;;;;;;18.76;94.35;97436.88;5024254;28;20064;-64
2023/09/03 00:05:34;;;;;;;1.80;1.80;;;;;;;19.00;94.72;97467.53;5023927;28;20060;-64
2023/09/03 00:08:15;;;;;;;1.90;1.90;;;;;;;18.97;94.96;97465.56;3736990;28;10020795;-63
2023/09/03 00:10:53;;;;;;;1.90;1.90;;;;;;;18.61;95.30;97416.56;19;388;10020793;-63
2023/09/03 00:13:20;;;;;;;1.70;1.70;;;;;;;18.87;95.71;97463.66;1901099;28;10001006;-64
2023/09/03 00:15:47;;;;;;;1.77;1.77;;;;;;;18.96;95.10;97458.34;5003481;28;20053;-63
2023/09/03 00:18:14;;;;;;;1.73;1.73;;;;;;;18.97;94.67;97450.72;5003813;28;20433;-63
2023/09/03 00:21:01;;;;;;;2.03;2.03;;;;;;;18.77;94.29;97425.25;5002987;28;20058;-64
2023/09/03 00:23:28;;;;;;;1.80;1.80;;;;;;;18.91;94.68;97464.41;5002320;28;20050;-63
2023/09/03 00:25:56;;;;;;;1.85;1.85;;;;;;;18.76;95.55;97457.31;5006365;28;20042;-63
2023/09/03 00:28:23;;;;;;;1.85;1.85;;;;;;;18.41;95.19;97401.50;5022387;28;20053;-63
2023/09/03 00:31:10;;;;;;;2.00;2.00;;;;;;;18.78;94.79;97460.50;5023427;28;20516;-64
2023/09/03 00:33:37;;;;;;;1.80;1.80;;;;;;;18.30;95.00;97400.75;5022661;28;20598;-64
2023/09/03 00:36:05;;;;;;;1.65;1.65;;;;;;;18.64;94.73;97459.81;5023527;28;20053;-64
2023/09/03 00:38:32;;;;;;;1.92;1.92;;;;;;;18.52;95.39;97455.53;5022330;28;20057;-64
2023/09/03 00:40:59;;;;;;;1.75;1.75;;;;;;;18.06;95.52;97399.72;5023235;28;20053;-64
2023/09/03 00:43:27;;;;;;;1.85;1.85;;;;;;;18.14;96.75;97397.66;5023065;28;20046;-64
2023/09/03 00:45:53;;;;;;;1.63;1.63;;;;;;;18.01;95.83;97376.91;5022678;28;20516;-63
2023/09/03 00:48:26;;;;;;;1.85;1.85;;;;;;;18.46;96.33;97454.38;5022830;28;20149;-63
2023/09/03 00:50:53;;;;;;;1.52;1.52;;;;;;;18.31;97.87;97457.63;5022667;28;20496;-63
2023/09/03 00:53:21;;;;;;;1.73;1.73;;;;;;;18.16;97.38;97414.88;5021439;28;20057;-63
2023/09/03 00:55:48;;;;;;;1.77;1.77;;;;;;;18.41;97.74;97442.78;5021631;28;20076;-63
2023/09/03 00:58:15;;;;;;;1.77;1.77;;;;;;;18.43;98.54;97446.75;5022976;28;20425;-62
2023/09/03 01:00:41;;;;;;;1.90;1.90;;;;;;;18.42;100.00;97436.75;5022825;28;20045;-63
2023/09/03 01:03:09;;;;;;;1.80;1.80;;;;;;;18.51;100.00;97431.47;5022551;28;20045;-63
2023/09/03 01:05:35;;;;;;;1.80;1.80;;;;;;;18.57;100.00;97429.84;4976973;28;20149;-64
2023/09/03 01:08:02;;;;;;;1.90;1.90;;;;;;;18.55;100.00;97429.44;5022960;28;20049;-63
2023/09/03 01:11:02;;;;;;;1.83;1.83;;;;;;;18.63;98.85;97433.78;5021894;28;20057;-62
2023/09/03 01:13:42;;;;;;;1.92;1.92;;;;;;;18.61;98.86;97433.41;5021968;28;20131;-62
2023/09/03 01:16:18;;;;;;;1.73;1.73;;;;;;;18.52;99.94;97430.28;5023598;28;20045;-63
2023/09/03 01:18:46;;;;;;;1.92;1.92;;;;;;;18.51;99.37;97428.66;5023359;28;20520;-64
2023/09/03 01:21:28;;;;;;;1.92;1.92;;;;;;;18.41;100.00;97434.34;5011466;28;20046;-64
2023/09/03 01:24:13;;;;;;;1.98;1.98;;;;;;;18.50;100.00;97443.91;4984537;28;20469;-63
2023/09/03 01:27:14;;;;;;;1.77;1.77;;;;;;;18.32;100.00;97403.94;4994509;28;20057;-63
2023/09/03 01:29:42;;;;;;;1.75;1.75;;;;;;;18.28;100.00;97389.16;5023245;28;20478;-63
2023/09/03 01:32:11;;;;;;;1.75;1.75;;;;;;;18.48;100.00;97446.31;5022453;28;20061;-64
2023/09/03 01:34:39;;;;;;;1.83;1.83;;;;;;;18.60;99.20;97437.41;5023794;28;20046;-64
2023/09/03 01:37:08;;;;;;;2.00;2.00;;;;;;;18.64;98.82;97432.56;5023749;28;20053;-63
2023/09/03 01:39:34;;;;;;;1.90;1.90;;;;;;;18.50;100.00;97432.69;5023383;28;20053;-63
2023/09/03 01:42:01;;;;;;;1.85;1.85;;;;;;;18.57;99.82;97432.63;5023539;28;20060;-64
2023/09/03 01:44:28;;;;;;;1.85;1.85;;;;;;;17.86;100.00;97308.94;5021188;28;20414;-63
2023/09/03 01:47:06;;;;;;;1.88;1.88;;;;;;;18.61;100.00;97432.59;5022929;28;20053;-63
2023/09/03 01:49:42;;;;;;;2.00;2.00;;;;;;;18.67;99.46;97425.34;5022823;28;20057;-64
2023/09/03 01:52:26;;;;;;;1.83;1.83;;;;;;;18.64;99.22;97431.75;5022850;28;20064;-62
2023/09/03 01:54:56;;;;;;;1.83;1.83;;;;;;;18.45;100.00;97419.09;5022278;28;20061;-62
2023/09/03 01:57:32;;;;;;;1.80;1.80;;;;;;;18.63;99.00;97435.78;5022479;28;20064;-63
2023/09/03 02:00:07;;;;;;;2.17;2.17;;;;;;;18.58;99.52;97423.00;5022549;28;20056;-62
2023/09/03 02:02:37;;;;;;;1.98;1.98;;;;;;;18.39;99.37;97381.47;5022440;28;20438;-62
2023/09/03 02:05:04;;;;;;;1.95;1.95;;;;;;;18.57;99.47;97418.63;5022263;28;20056;-62
2023/09/03 02:07:30;;;;;;;1.83;1.83;;;;;;;18.61;99.56;97422.16;5022277;28;20053;-62
2023/09/03 02:09:57;;;;;;;1.70;1.70;;;;;;;18.62;99.22;97420.16;5020033;28;20057;-62
2023/09/03 02:12:24;;;;;;;1.90;1.90;;;;;;;18.18;98.47;97347.94;5021441;28;20053;-62
2023/09/03 02:14:52;;;;;;;1.80;1.80;;;;;;;18.42;99.62;97414.31;5020278;28;20531;-62
2023/09/03 02:17:20;;;;;;;1.80;1.80;;;;;;;18.43;100.00;97424.31;5021247;28;20136;-62
2023/09/03 02:19:51;;;;;;;2.10;2.10;;;;;;;18.33;99.86;97399.94;5019629;28;20065;-62
2023/09/03 02:22:18;;;;;;;1.70;1.70;;;;;;;18.42;99.91;97419.91;5019530;28;20045;-62
2023/09/03 02:24:44;;;;;;;1.90;1.90;;;;;;;18.31;100.00;97419.16;5019435;28;20056;-62
2023/09/03 02:27:12;;;;;;;1.90;1.90;;;;;;;18.27;100.00;97412.00;5011733;28;20053;-62
2023/09/03 02:29:39;;;;;;;1.90;1.90;;;;;;;17.87;99.97;97349.78;5000904;28;20108;-62
2023/09/03 02:32:06;;;;;;;1.80;1.80;;;;;;;18.27;100.00;97410.00;5001554;28;20072;-63
2023/09/03 02:34:34;;;;;;;1.80;1.80;;;;;;;17.87;100.00;97375.03;5001308;28;20079;-64
2023/09/03 02:37:01;;;;;;;1.95;1.95;;;;;;;18.29;98.89;97415.19;5001127;28;20050;-63
2023/09/03 02:39:28;;;;;;;1.63;1.63;;;;;;;18.20;99.00;97412.84;5000673;28;20046;-63
2023/09/03 02:41:57;;;;;;;1.70;1.70;;;;;;;18.26;98.43;97464.47;5000996;28;20060;-63
2023/09/03 02:44:24;;;;;;;1.83;1.83;;;;;;;18.32;97.67;97420.75;5005564;28;20069;-63
2023/09/03 02:46:52;;;;;;;1.83;1.83;;;;;;;18.29;96.54;97399.16;5006014;28;20049;-63
2023/09/03 02:49:20;;;;;;;1.75;1.75;;;;;;;18.29;96.27;97410.34;5006202;28;20046;-63
2023/09/03 02:51:47;;;;;;;1.70;1.70;;;;;;;18.15;97.92;97416.06;5005960;28;20053;-63
2023/09/03 02:54:13;;;;;;;2.00;2.00;;;;;;;18.20;97.62;97418.44;5003801;28;20068;-62
2023/09/03 02:56:40;;;;;;;2.10;2.10;;;;;;;18.24;97.19;97435.25;5004168;28;20050;-63
2023/09/03 02:59:07;;;;;;;1.75;1.75;;;;;;;18.16;98.07;97434.50;5004138;28;20090;-62
2023/09/03 03:01:33;;;;;;;1.80;1.80;;;;;;;18.04;98.95;97420.94;5005930;28;20050;-63
2023/09/03 03:04:01;;;;;;;1.90;1.90;;;;;;;18.06;98.72;97432.56;5006371;28;20089;-63
2023/09/03 03:06:27;;;;;;;1.52;1.52;;;;;;;18.15;98.24;97426.50;5006330;28;20116;-63
2023/09/03 03:08:54;;;;;;;1.80;1.80;;;;;;;17.85;97.00;97396.25;5005900;28;20061;-63
2023/09/03 03:11:23;;;;;;;1.70;1.70;;;;;;;18.06;97.70;97435.38;5005863;28;20144;-63
2023/09/03 03:13:52;;;;;;;1.80;1.80;;;;;;;18.14;97.86;97425.69;5006009;28;20054;-62
2023/09/03 03:16:19;;;;;;;1.65;1.65;;;;;;;17.62;97.74;97337.13;5004096;28;20527;-63
2023/09/03 03:18:46;;;;;;;1.80;1.80;;;;;;;18.18;97.40;97420.06;5005480;28;20418;-63
2023/09/03 03:21:19;;;;;;;1.58;1.58;;;;;;;18.11;97.40;97415.31;5003502;28;20042;-63
2023/09/03 03:23:51;;;;;;;1.90;1.90;;;;;;;18.13;96.82;97419.28;5004799;28;20050;-63
2023/09/03 03:26:19;;;;;;;1.60;1.60;;;;;;;18.10;96.85;97430.53;5004666;28;20440;-63
2023/09/03 03:28:46;;;;;;;1.95;1.95;;;;;;;18.09;96.56;97409.31;5024064;28;20068;-63
2023/09/03 03:31:15;;;;;;;1.80;1.80;;;;;;;18.09;96.87;97417.72;5024022;28;20099;-63
2023/09/03 03:33:43;;;;;;;1.60;1.60;;;;;;;18.10;97.47;97411.69;5024208;28;20504;-63
2023/09/03 03:36:16;;;;;;;1.77;1.77;;;;;;;18.11;97.23;97426.53;5022579;28;20046;-63
2023/09/03 03:38:43;;;;;;;1.70;1.70;;;;;;;18.06;97.83;97424.16;5022890;28;20053;-63
2023/09/03 03:41:12;;;;;;;1.70;1.70;;;;;;;17.94;98.86;97422.59;5023970;28;20061;-63
2023/09/03 03:43:40;;;;;;;1.50;1.50;;;;;;;17.87;98.01;97422.66;5023980;28;20383;-63
2023/09/03 03:46:08;;;;;;;1.60;1.60;;;;;;;17.83;98.11;97421.09;5023456;28;20453;-63
2023/09/03 03:48:36;;;;;;;1.40;1.40;;;;;;;17.67;98.47;97406.75;5022078;28;20836;-63
2023/09/03 03:51:03;;;;;;;1.80;1.80;;;;;;;17.70;99.86;97417.16;5023046;28;20057;-63
2023/09/03 03:53:30;;;;;;;1.50;1.50;;;;;;;17.67;100.00;97423.56;5021094;28;20136;-63
2023/09/03 03:56:05;;;;;;;1.80;1.80;;;;;;;17.69;100.00;97421.13;5021434;28;20432;-63
2023/09/03 03:58:33;;;;;;;1.70;1.70;;;;;;;17.39;100.00;97367.63;5022744;28;20495;-63
2023/09/03 04:01:11;;;;;;;1.70;1.70;;;;;;;17.67;100.00;97415.16;5023131;28;20057;-64
2023/09/03 04:03:38;;;;;;;1.80;1.80;;;;;;;17.63;98.01;97395.56;5022933;28;20049;-63
2023/09/03 04:06:05;;;;;;;1.70;1.70;;;;;;;17.81;97.57;97429.09;5022297;28;20547;-63
2023/09/03 04:08:33;;;;;;;1.60;1.60;;;;;;;17.51;96.93;97370.00;5021180;28;20416;-63
2023/09/03 04:11:05;;;;;;;1.60;1.60;;;;;;;17.70;96.41;97394.72;5021380;28;20076;-63
2023/09/03 04:13:32;;;;;;;1.35;1.35;;;;;;;17.85;96.92;97413.84;5022843;28;20512;-63
2023/09/03 04:15:59;;;;;;;1.65;1.65;;;;;;;17.87;96.26;97410.66;5022792;28;20494;-62
2023/09/03 04:18:27;;;;;;;1.88;1.88;;;;;;;17.90;97.44;97429.44;5022696;28;20269;-63
2023/09/03 04:20:56;;;;;;;1.83;1.83;;;;;;;17.99;96.18;97413.78;5020823;28;20041;-65
2023/09/03 04:23:23;;;;;;;1.80;1.80;;;;;;;17.90;96.38;97381.78;5021385;28;20049;-65
2023/09/03 04:25:51;;;;;;;1.77;1.77;;;;;;;18.19;95.31;97407.63;5022442;28;20041;-65
2023/09/03 04:28:19;;;;;;;1.77;1.77;;;;;;;17.90;95.09;97387.41;5005110;28;20046;-64
2023/09/03 04:30:51;;;;;;;1.83;1.83;;;;;;;18.11;95.77;97412.50;5001179;28;20492;-61
2023/09/03 04:33:18;;;;;;;1.70;1.70;;;;;;;17.64;95.54;97334.72;5003842;28;20069;-64
2023/09/03 04:35:44;;;;;;;1.60;1.60;;;;;;;18.17;96.17;97396.84;5003161;28;20137;-64
2023/09/03 04:38:11;;;;;;;1.52;1.52;;;;;;;18.41;94.32;97407.13;5004200;28;20073;-64
2023/09/03 04:40:38;;;;;;;1.80;1.80;;;;;;;18.29;93.37;97379.50;5002380;28;20046;-64
2023/09/03 04:43:05;;;;;;;1.77;1.77;;;;;;;18.56;93.29;97402.97;5004193;28;20050;-64
2023/09/03 04:45:32;;;;;;;1.90;1.90;;;;;;;18.43;92.65;97371.00;5004442;28;20489;-64
2023/09/03 04:47:58;;;;;;;1.70;1.70;;;;;;;18.44;92.17;97369.00;5004622;28;20064;-64
2023/09/03 04:50:26;;;;;;;2.17;2.17;;;;;;;18.92;90.28;97398.63;5002719;28;20391;-65
2023/09/03 04:52:56;;;;;;;2.00;2.00;;;;;;;18.98;89.65;97396.97;5003651;28;20054;-65
2023/09/03 04:55:23;;;;;;;1.90;1.90;;;;;;;19.17;88.58;97390.72;5003743;28;20046;-66
2023/09/03 04:57:50;;;;;;;1.90;1.90;;;;;;;18.86;86.95;97304.84;5003504;28;20077;-64
2023/09/03 05:00:16;;;;;;;1.77;1.77;;;;;;;19.43;86.85;97394.88;5003544;28;20061;-63
2023/09/03 05:02:44;;;;;;;1.90;1.90;;;;;;;18.96;86.89;97315.16;5003052;28;20056;-63
2023/09/03 05:05:11;;;;;;;2.10;2.10;;;;;;;19.58;86.44;97380.22;5001472;28;20184;-63
2023/09/03 05:07:37;;;;;;;1.92;1.92;;;;;;;19.57;86.59;97358.16;5002003;28;20054;-63
2023/09/03 05:10:05;;;;;;;1.90;1.90;;;;;;;19.63;85.37;97353.69;5001312;28;20310;-62
2023/09/03 05:12:34;;;;;;;1.92;1.92;;;;;;;19.95;84.24;97386.97;5003452;28;20062;-63
2023/09/03 05:15:01;;;;;;;2.25;2.25;;;;;;;20.04;83.89;97378.81;5000352;28;20058;-63
2023/09/03 05:17:28;;;;;;;1.95;1.95;;;;;;;19.78;83.84;97310.09;5002013;28;20054;-63
2023/09/03 05:19:54;;;;;;;2.20;2.20;;;;;;;20.35;82.87;97377.53;5002640;28;20064;-64
2023/09/03 05:22:23;;;;;;;2.03;2.03;;;;;;;20.50;81.30;97364.84;5001586;28;20050;-63
2023/09/03 05:24:50;;;;;;;2.10;2.10;;;;;;;20.57;81.26;97373.16;5003316;28;20054;-63
2023/09/03 05:27:16;;;;;;;1.83;1.83;;;;;;;20.66;80.86;97377.00;5012039;28;20511;-64
2023/09/03 05:29:43;;;;;;;2.10;2.10;;;;;;;20.84;80.05;97382.34;5021464;28;20061;-65
2023/09/03 05:32:10;;;;;;;2.28;2.28;;;;;;;20.72;79.62;97335.09;5021395;28;20057;-64
2023/09/03 05:34:36;;;;;;;2.00;2.00;;;;;;;21.03;79.83;97375.97;5022877;28;20061;-64
2023/09/03 05:37:03;;;;;;;1.85;1.85;;;;;;;21.10;79.71;97384.31;5021367;28;20425;-64
2023/09/03 05:39:31;;;;;;;2.15;2.15;;;;;;;21.33;78.76;97383.44;5021425;28;20049;-64
2023/09/03 05:41:57;;;;;;;1.98;1.98;;;;;;;21.54;77.38;97374.56;5022847;28;20393;-64
2023/09/03 05:44:24;;;;;;;2.20;2.20;;;;;;;21.68;76.87;97368.63;5022775;28;20053;-64
2023/09/03 05:46:51;;;;;;;2.10;2.10;;;;;;;21.89;76.70;97371.78;5010929;28;20451;-63
2023/09/03 05:49:17;;;;;;;2.38;2.35;;;;;;;21.84;74.64;97344.13;5020230;28;20045;-64
2023/09/03 05:51:44;;;;;;;2.20;2.20;;;;;;;22.11;74.49;97387.00;5018363;28;20053;-64
2023/09/03 05:54:11;;;;;;;2.20;2.20;;;;;;;22.13;73.73;97381.72;5019023;28;20422;-63
2023/09/03 05:56:38;;;;;;;2.20;2.20;;;;;;;22.34;73.72;97384.06;5020670;28;20072;-63
2023/09/03 05:59:08;;;;;;;2.28;2.28;;;;;;;22.46;72.09;97374.88;5020631;28;20057;-64
2023/09/03 06:01:35;;;;;;;2.50;2.40;;;;;;;22.29;73.40;97347.88;5019450;28;20414;-63
2023/09/03 06:04:06;;;;;;;2.35;2.30;;;;;;;22.46;72.96;97346.66;5020956;28;20053;-63
2023/09/03 06:06:40;;;;;;;2.33;2.30;;;;;;;22.79;71.93;97381.38;5019731;28;20061;-63
2023/09/03 06:09:07;;;;;;;2.63;2.53;;;;;;;23.02;71.72;97386.81;5021749;28;20482;-63
2023/09/03 06:11:33;;;;;;;2.67;2.58;;;;;;;22.87;71.60;97319.81;5021803;28;20053;-64
2023/09/03 06:14:00;;;;;;;2.55;2.45;;;;;;;23.07;70.23;97346.72;5021464;28;20049;-63
2023/09/03 06:16:27;;;;;;;2.83;2.72;;;;;;;22.96;69.63;97317.94;5019807;28;20056;-62
2023/09/03 06:18:54;;;;;;;2.72;2.63;;;;;;;23.47;69.44;97367.81;5021701;28;20601;-63
2023/09/03 06:21:21;;;;;;;2.95;2.85;;;;;;;23.60;69.52;97367.88;5021711;28;20064;-63
2023/09/03 06:23:48;;;;;;;2.53;2.42;;;;;;;23.61;67.57;97346.81;5021371;28;20064;-63
2023/09/03 06:26:14;;;;;;;2.40;2.33;;;;;;;23.84;65.98;97383.31;5020997;28;20049;-64
2023/09/03 06:28:41;;;;;;;2.80;2.70;;;;;;;23.59;66.46;97346.47;5022387;28;20057;-63
2023/09/03 06:31:08;;;;;;;2.92;2.83;;;;;;;24.21;64.54;97385.44;5021771;28;20053;-63
2023/09/03 06:33:38;;;;;;;3.10;3.00;;;;;;;23.83;63.47;97285.50;5020207;28;20587;-63
2023/09/03 06:36:05;;;;;;;2.97;2.88;;;;;;;24.67;62.27;97393.28;5021374;28;20447;-63
2023/09/03 06:38:31;;;;;;;3.17;3.08;;;;;;;24.92;61.85;97381.91;5021161;28;20417;-63
2023/09/03 06:40:58;;;;;;;2.88;2.78;;;;;;;24.60;62.12;97339.63;5020106;28;20053;-63
2023/09/03 06:43:25;;;;;;;3.13;3.03;;;;;;;25.10;61.49;97376.41;5021932;28;20079;-64
2023/09/03 06:45:52;;;;;;;3.05;2.95;;;;;;;25.47;59.77;97373.91;5020486;28;20073;-64
2023/09/03 06:48:18;;;;;;;3.15;3.05;;;;;;;25.69;58.53;97377.56;5022053;28;20085;-65
2023/09/03 06:50:46;;;;;;;3.55;3.45;;;;;;;25.93;58.24;97372.97;5021356;28;20140;-64
2023/09/03 06:53:12;;;;;;;3.78;3.67;;;;;;;26.14;57.09;97372.19;5019735;28;20053;-64
2023/09/03 06:55:42;;;;;;;3.47;3.38;;;;;;;26.23;56.35;97358.03;5021194;28;20243;-63
2023/09/03 06:58:09;;;;;;;3.80;3.70;;;;;;;26.51;55.28;97363.34;5020990;28;20504;-63
2023/09/03 07:00:36;;;;;;;3.83;3.72;;;;;;;26.49;54.11;97342.38;5021348;28;20076;-64
2023/09/03 07:03:02;;;;;;;3.90;3.80;;;;;;;26.88;52.24;97369.97;5020968;28;20060;-64
2023/09/03 07:05:29;;;;;;;3.97;3.88;;;;;;;26.84;50.46;97363.66;5021033;28;20582;-64
2023/09/03 07:07:56;;;;;;;4.00;3.90;;;;;;;26.76;49.61;97353.84;5021162;28;20060;-64
2023/09/03 07:10:23;;;;;;;4.05;3.95;;;;;;;26.06;48.90;97237.41;5019248;28;20521;-64
2023/09/03 07:12:49;;;;;;;3.70;3.60;;;;;;;26.66;46.99;97329.50;5020470;28;21167;-62
2023/09/03 07:15:16;;;;;;;3.78;3.67;;;;;;;26.89;48.79;97368.69;5020475;28;20049;-62
2023/09/03 07:17:43;;;;;;;3.63;3.53;;;;;;;26.87;47.50;97362.72;5018907;28;20049;-63
2023/09/03 07:20:10;;;;;;;3.58;3.47;;;;;;;27.05;47.87;97368.41;5020226;28;20049;-63
2023/09/03 07:22:37;;;;;;;3.70;3.60;;;;;;;27.18;46.03;97366.22;5021261;28;20058;-64
2023/09/03 07:25:04;;;;;;;3.80;3.70;;;;;;;27.29;47.04;97369.44;5021326;28;20054;-63
2023/09/03 07:27:32;;;;;;;4.10;4.00;;;;;;;27.41;45.21;97362.00;5022034;28;20057;-64
2023/09/03 07:29:59;;;;;;;4.32;4.22;;;;;;;27.12;45.08;97367.34;5023241;28;20061;-63
2023/09/03 07:32:26;;;;;;;3.75;3.65;;;;;;;27.24;46.16;97360.69;5023839;28;20080;-63
2023/09/03 07:34:53;;;;;;;3.80;3.70;;;;;;;27.26;43.90;97367.53;5024653;28;20052;-63
2023/09/03 07:37:20;;;;;;;3.58;3.47;;;;;;;27.32;44.14;97320.13;5023516;28;20049;-64
2023/09/03 07:39:47;;;;;;;3.92;3.83;;;;;;;27.63;41.84;97397.56;5025612;28;20444;-64
2023/09/03 07:42:14;;;;;;;3.90;3.80;;;;;;;26.50;42.67;97321.19;5025050;28;20049;-63
2023/09/03 07:44:40;;;;;;;3.40;3.30;;;;;;;26.92;43.37;97367.75;5023378;28;20052;-63
2023/09/03 07:47:07;;;;;;;3.70;3.60;;;;;;;27.13;42.66;97329.88;5025295;28;20156;-63
2023/09/03 07:49:34;;;;;;;3.90;3.80;;;;;;;27.47;42.16;97355.22;5025278;28;20306;-63
2023/09/03 07:52:00;;;;;;;3.50;3.40;;;;;;;27.26;41.18;97361.00;5025159;28;20512;-63
2023/09/03 07:54:27;;;;;;;4.20;4.10;;;;;;;27.62;41.41;97361.84;5024583;28;20540;-64
2023/09/03 07:56:56;;;;;;;4.03;3.92;;;;;;;27.69;40.75;97327.38;5025732;28;20068;-64
2023/09/03 07:59:23;;;;;;;3.90;3.80;;;;;;;28.09;40.62;97367.00;5024643;28;20524;-64
2023/09/03 08:01:50;;;;;;;3.88;3.78;;;;;;;28.05;39.85;97372.88;5023277;28;20045;-62
2023/09/03 08:04:19;;;;;;;3.88;3.78;;;;;;;27.82;40.26;97364.97;5025213;28;20046;-63
2023/09/03 08:06:45;;;;;;;4.15;4.05;;;;;;;27.83;40.98;97360.88;5025190;28;20045;-63
2023/09/03 08:09:12;;;;;;;4.03;3.92;;;;;;;28.12;39.95;97358.28;5025005;28;20104;-64
2023/09/03 08:11:39;;;;;;;4.15;4.05;;;;;;;28.24;40.37;97350.03;5024777;28;20053;-63
2023/09/03 08:14:06;;;;;;;3.90;3.80;;;;;;;28.79;38.83;97365.66;5025190;28;20160;-64
2023/09/03 08:16:33;;;;;;;4.07;3.97;;;;;;;28.91;38.07;97358.94;5024577;28;20583;-64
2023/09/03 08:19:00;;;;;;;4.15;4.05;;;;;;;29.14;37.73;97361.03;5024579;28;20049;-64
2023/09/03 08:21:26;;;;;;;4.45;4.35;;;;;;;29.24;36.97;97360.47;5023072;28;20496;-63
2023/09/03 08:23:53;;;;;;;4.13;4.03;;;;;;;29.26;37.07;97362.84;5023385;28;20130;-62
2023/09/03 08:26:20;;;;;;;4.35;4.25;;;;;;;29.44;38.33;97351.28;5022671;28;20084;-63
2023/09/03 08:28:46;;;;;;;4.30;4.20;;;;;;;29.61;37.45;97349.53;5024528;28;20045;-64
2023/09/03 08:31:13;;;;;;;4.70;4.60;;;;;;;29.67;36.20;97353.31;5024046;28;20065;-64
2023/09/03 08:33:40;;;;;;;4.70;4.60;;;;;;;29.74;36.90;97350.09;5021917;28;20613;-65
2023/09/03 08:36:07;;;;;;;4.40;4.30;;;;;;;30.01;36.84;97355.53;5023836;28;20392;-63
2023/09/03 08:38:34;;;;;;;4.15;4.05;;;;;;;28.84;37.92;97357.22;5023049;28;20080;-62
2023/09/03 08:41:00;;;;;;;4.30;4.20;;;;;;;28.63;38.48;97354.66;5022585;28;20527;-63
2023/09/03 08:43:29;;;;;;;4.25;4.15;;;;;;;28.64;38.19;97353.38;5023618;28;20049;-64
2023/09/03 08:46:02;;;;;;;3.72;3.63;;;;;;;28.35;39.17;97361.69;5023563;28;20514;-63
2023/09/03 08:48:28;;;;;;;4.00;3.90;;;;;;;29.21;38.50;97334.97;5023514;28;20057;-64
2023/09/03 08:50:56;;;;;;;4.82;4.72;;;;;;;29.61;37.93;97338.13;5023189;28;20391;-63
2023/09/03 08:53:23;;;;;;;4.70;4.60;;;;;;;29.52;36.55;97336.16;5021724;28;20073;-63
2023/09/03 08:55:50;;;;;;;4.72;4.63;;;;;;;30.04;36.50;97325.97;5023466;28;20475;-63
2023/09/03 08:58:17;;;;;;;4.65;4.55;;;;;;;30.35;35.59;97328.34;5021918;28;20444;-63
2023/09/03 09:00:44;;;;;;;4.78;4.68;;;;;;;29.12;35.19;97277.97;5021976;28;20046;-63
2023/09/03 09:03:14;;;;;;;4.40;4.30;;;;;;;29.75;35.44;97320.25;5023019;28;20057;-63
2023/09/03 09:05:42;;;;;;;4.63;4.53;;;;;;;29.95;35.81;97322.44;5023107;28;20569;-65
2023/09/03 09:08:08;;;;;;;4.45;4.35;;;;;;;29.93;35.73;97319.25;5023412;28;20622;-63
2023/09/03 09:10:40;;;;;;;4.35;4.25;;;;;;;30.26;35.24;97319.88;5023399;28;20160;-63
2023/09/03 09:13:08;;;;;;;4.43;4.32;;;;;;;29.48;35.24;97271.94;5022674;28;20050;-63
2023/09/03 09:15:36;;;;;;;4.40;4.30;;;;;;;29.51;34.04;97313.81;5020931;28;20057;-63
2023/09/03 09:18:09;;;;;;;4.40;4.30;;;;;;;29.39;34.97;97254.88;5021805;28;20061;-63
2023/09/03 09:20:38;;;;;;;4.25;4.15;;;;;;;29.47;35.72;97333.16;5021766;28;20063;-63
2023/09/03 09:23:07;;;;;;;4.22;4.13;;;;;;;30.06;35.04;97320.56;5022017;28;20081;-68
2023/09/03 09:25:38;;;;;;;4.65;4.55;;;;;;;29.78;35.07;97327.84;5021320;28;20111;-63
2023/09/03 09:28:14;;;;;;;4.82;4.72;;;;;;;29.79;35.46;97315.13;5021113;28;20049;-63
2023/09/03 09:30:54;;;;;;;4.60;4.50;;;;;;;29.90;35.36;97318.19;5019988;28;20538;-64
2023/09/03 09:33:21;;;;;;;4.65;4.55;;;;;;;27.94;35.99;97184.59;5019971;28;20053;-64
2023/09/03 09:35:48;;;;;;;4.38;4.28;;;;;;;28.70;36.11;97322.91;5021535;28;20057;-63
2023/09/03 09:38:16;;;;;;;4.43;4.32;;;;;;;28.88;35.89;97280.03;5021793;28;20049;-63
2023/09/03 09:40:43;;;;;;;4.47;4.38;;;;;;;27.50;36.15;97046.09;5019669;28;20500;-64
2023/09/03 09:43:10;;;;;;;4.20;4.10;;;;;;;29.24;36.39;97319.75;5021270;28;20054;-64
2023/09/03 09:45:48;;;;;;;4.68;4.57;;;;;;;29.23;36.37;97318.13;5020795;28;20056;-63
2023/09/03 09:48:15;;;;;;;4.25;4.15;;;;;;;29.32;35.60;97304.59;5020944;28;20045;-64
2023/09/03 09:50:47;;;;;;;4.18;4.07;;;;;;;29.22;36.03;97303.09;5020342;28;20459;-64
2023/09/03 09:53:27;;;;;;;4.40;4.30;;;;;;;28.96;36.12;97301.22;5020975;28;20510;-65
2023/09/03 09:55:59;;;;;;;4.43;4.32;;;;;;;29.69;36.07;97293.66;5021175;28;20057;-63
2023/09/03 09:58:37;;;;;;;4.28;4.18;;;;;;;29.74;35.72;97295.81;5021365;28;20049;-62
2023/09/03 10:01:04;;;;;;;4.68;4.57;;;;;;;29.93;35.23;97291.50;5021115;28;20133;-65
2023/09/03 10:03:46;;;;;;;4.43;4.32;;;;;;;29.46;35.36;97231.66;5019672;28;20052;-64
2023/09/03 10:06:14;;;;;;;4.50;4.40;;;;;;;29.43;35.61;97286.91;5020765;28;20127;-64
2023/09/03 10:08:45;;;;;;;4.60;4.50;;;;;;;28.83;36.32;97283.56;5019451;28;20060;-65
2023/09/03 10:11:15;;;;;;;4.28;4.18;;;;;;;28.88;35.98;97280.03;5020556;28;20475;-63
2023/09/03 10:13:43;;;;;;;4.28;4.18;;;;;;;29.29;36.18;97276.25;5020371;28;20076;-64
2023/09/03 10:16:10;;;;;;;4.35;4.25;;;;;;;29.61;34.70;97269.56;5020743;28;20428;-63
2023/09/03 10:18:44;;;;;;;4.15;4.05;;;;;;;29.15;35.69;97265.59;5020683;28;20418;-64
2023/09/03 10:21:13;;;;;;;4.50;4.40;;;;;;;29.60;35.50;97265.16;5020645;28;20060;-63
2023/09/03 10:23:46;;;;;;;4.80;4.70;;;;;;;29.63;35.11;97255.59;5020026;28;20045;-64
2023/09/03 10:26:16;;;;;;;4.75;4.65;;;;;;;29.42;35.90;97262.47;5020247;28;20053;-63
2023/09/03 10:28:46;;;;;;;4.30;4.20;;;;;;;29.13;35.66;97256.72;5020386;28;20061;-63
2023/09/03 10:31:15;;;;;;;4.22;4.13;;;;;;;29.70;35.30;97243.03;5020430;28;20107;-64
2023/09/03 10:33:59;;;;;;;4.05;3.95;;;;;;;29.59;34.84;97246.47;5021573;28;20190;-64
2023/09/03 10:36:26;;;;;;;4.32;4.22;;;;;;;29.22;34.93;97210.97;5020470;28;20049;-64
2023/09/03 10:38:53;;;;;;;4.60;4.50;;;;;;;30.01;34.61;97226.94;5020936;28;20060;-63
2023/09/03 10:41:20;;;;;;;4.68;4.57;;;;;;;29.86;34.47;97246.16;5019457;28;20081;-63
2023/09/03 10:43:54;;;;;;;4.75;4.65;;;;;;;29.49;35.46;97242.09;5020315;28;20053;-63
2023/09/03 10:46:22;;;;;;;4.35;4.25;;;;;;;30.24;34.84;97231.75;5020094;28;20053;-63
2023/09/03 10:48:51;;;;;;;4.75;4.65;;;;;;;30.71;34.63;97231.38;5018913;28;20056;-63
2023/09/03 10:51:37;;;;;;;4.85;4.75;;;;;;;30.21;33.91;97232.75;5020581;28;20053;-63
2023/09/03 10:54:15;;;;;;;4.70;4.60;;;;;;;29.45;33.91;97133.00;5020563;28;20089;-64
2023/09/03 10:57:03;;;;;;;4.22;4.13;;;;;;;30.89;33.25;97216.81;5020806;28;20566;-63
2023/09/03 10:59:58;;;;;;;4.78;4.68;;;;;;;30.96;33.61;97212.75;5020602;28;20077;-64
2023/09/03 11:02:27;;;;;;;4.90;4.80;;;;;;;30.78;33.78;97213.03;5021539;28;20061;-64
2023/09/03 11:05:20;;;;;;;4.65;4.55;;;;;;;31.24;33.53;97218.78;5023789;28;20496;-64
2023/09/03 11:07:49;;;;;;;4.47;4.38;;;;;;;30.89;33.93;97218.91;5022998;28;20523;-65
2023/09/03 11:10:37;;;;;;;4.38;4.28;;;;;;;30.25;34.64;97216.19;5024140;28;20049;-63
2023/09/03 11:13:08;;;;;;;4.28;4.18;;;;;;;29.51;34.93;97176.75;5023051;28;20056;-63
2023/09/03 11:15:58;;;;;;;4.68;4.57;;;;;;;29.87;34.10;97202.03;5024303;28;20053;-62
2023/09/03 11:18:27;;;;;;;4.63;4.53;;;;;;;30.44;34.11;97194.63;5024302;28;20067;-63
2023/09/03 11:20:58;;;;;;;4.95;4.85;;;;;;;30.68;34.78;97200.91;5024219;28;20057;-63
2023/09/03 11:23:27;;;;;;;4.57;4.47;;;;;;;30.82;33.66;97202.97;5024581;28;20053;-64
2023/09/03 11:26:02;;;;;;;4.50;4.40;;;;;;;30.66;33.56;97189.19;5024401;28;20052;-65
2023/09/03 11:28:35;;;;;;;4.10;4.00;;;;;;;30.45;34.69;97149.66;5024214;28;20311;-64
2023/09/03 11:31:03;;;;;;;4.82;4.72;;;;;;;31.37;33.61;97196.31;5023434;28;20059;-63
2023/09/03 11:33:30;;;;;;;4.80;4.70;;;;;;;31.44;33.09;97187.28;5023876;28;20065;-63
2023/09/03 11:35:59;;;;;;;4.65;4.55;;;;;;;30.71;34.88;97191.31;5024494;28;20548;-63
2023/09/03 11:38:26;;;;;;;4.70;4.60;;;;;;;31.44;34.04;97182.31;5022763;28;20165;-62
2023/09/03 11:40:56;;;;;;;4.55;4.45;;;;;;;31.71;33.07;97155.22;5023065;28;20577;-63